Ana Sayfa
METAR-TAF:

METAR-TAF

Havaalanları :

Fiumicino

Roma-Fiumicino, İtalya

Enlem: 41-48N, Boylam: 012-14E, yükseklik: 2 m

Güncel hava durumu gözlemi

Rapor saat 21:20 UTC de 26 dakika önce yapıldı.
Rüzgar kuzey/kuzeydoğudan 7 kt
Sıcaklık 8°C
Nem 66%
Basınç 1017 hPa
Görüş mesafesi 10 km veya daha fazla
1500 m altında bulut yok ve kümülonimbus yok

METAR: LIRF 172120Z 02007KT CAVOK 08/02 Q1017 NOSIG

Saat: 22:46 (21:46 UTC)

Tahmin

Rapor saat 17:00 UTC de 4 saat ve 46 dakika önce yapıldı.
Ayın 17'si saat 18 UTC'den ayın 18'si saat 24 UTC'ye kadar geçerli Tahmin
Rüzgar kuzeydoğudan 8 kt
Görüş mesafesi 10 km veya daha fazla
4000 ft yükseklikte az bulutlu

TAF: LIRF 171700Z 1718/1824 04008KT 9999 FEW040

4.000'den fazla havaalanı için hava durumu gözlemleri ve tahminleri (METAR ve TAF raporları).

Kullanılabilir istasyonlar harita üzerinde sarı ve kırmızı noktalarla gösterilir.

İstasyonun adını görmek için fareyi noktanın üzerinde gezdirin.

Sonrasında hava gözlem ve tahminlerini görmek için tıklayın.

Haritayı değiştirmek için: yaklaştırmak için siyah artı işaretli yeşil düğmeye ve uzaklaştırmak için de eksi işaretli düğmeye hızla tıklayın; bitişik haritalar için yeşil okları kullanın.


METAR-TAF: